createdAt,value
2022-09-04T00:03:41.734Z,15.77
2022-09-04T00:08:01.187Z,15.77
2022-09-04T00:12:08.638Z,15.78
2022-09-04T00:16:16.987Z,15.72
2022-09-04T00:20:46.093Z,15.66
2022-09-04T00:24:57.561Z,15.65
2022-09-04T00:29:06.019Z,15.46
2022-09-04T00:33:20.601Z,15.37
2022-09-04T00:37:28.084Z,15.37
2022-09-04T00:41:58.228Z,15.39
2022-09-04T00:46:06.458Z,15.39
2022-09-04T00:50:40.932Z,15.25
2022-09-04T00:55:35.314Z,15.01
2022-09-04T01:00:02.356Z,15.00
2022-09-04T01:04:35.267Z,14.94
2022-09-04T01:09:03.413Z,15.01
2022-09-04T01:13:30.827Z,14.98
2022-09-04T01:17:51.431Z,14.94
2022-09-04T01:22:21.607Z,14.88
2022-09-04T01:26:37.620Z,14.80
2022-09-04T01:30:50.933Z,14.72
2022-09-04T01:35:06.918Z,14.68
2022-09-04T01:39:09.219Z,14.63
2022-09-04T01:43:21.152Z,14.58
2022-09-04T01:47:40.162Z,14.55
2022-09-04T01:52:08.084Z,14.59
2022-09-04T01:56:18.997Z,14.56
2022-09-04T02:00:24.917Z,14.58
2022-09-04T02:04:48.782Z,14.55
2022-09-04T02:09:10.811Z,14.36
2022-09-04T02:13:44.835Z,14.22
2022-09-04T02:18:14.316Z,14.22
2022-09-04T02:22:39.893Z,14.19
2022-09-04T02:26:46.215Z,13.93
2022-09-04T02:31:00.144Z,13.88
2022-09-04T02:35:15.325Z,13.99
2022-09-04T02:39:30.998Z,14.01
2022-09-04T02:43:39.655Z,14.03
2022-09-04T02:48:04.413Z,14.11
2022-09-04T02:52:33.429Z,14.22
2022-09-04T02:57:12.254Z,14.45
2022-09-04T03:01:23.969Z,14.63
2022-09-04T03:05:31.476Z,14.74
2022-09-04T03:09:42.210Z,14.81
2022-09-04T03:13:58.927Z,14.85
2022-09-04T03:18:16.272Z,14.89
2022-09-04T03:22:41.030Z,14.92
2022-09-04T03:27:07.994Z,14.99
2022-09-04T03:31:28.838Z,14.99
2022-09-04T03:35:58.751Z,14.97
2022-09-04T03:40:18.989Z,14.76
2022-09-04T03:44:34.802Z,14.64
2022-09-04T03:48:55.672Z,14.73
2022-09-04T03:53:42.793Z,14.84
2022-09-04T03:58:19.035Z,14.93
2022-09-04T04:02:37.157Z,14.94
2022-09-04T04:07:07.739Z,14.94
2022-09-04T04:11:23.154Z,14.89
2022-09-04T04:16:08.359Z,14.96
2022-09-04T04:20:38.175Z,15.06
2022-09-04T04:24:58.527Z,15.08
2022-09-04T04:29:30.235Z,15.19
2022-09-04T04:33:42.028Z,15.29
2022-09-04T04:38:03.078Z,15.35
2022-09-04T04:42:28.989Z,15.45
2022-09-04T04:46:51.106Z,15.57
2022-09-04T04:51:40.571Z,15.73
2022-09-04T04:56:15.377Z,15.85
2022-09-04T05:00:27.487Z,15.93
2022-09-04T05:04:41.728Z,16.06
2022-09-04T05:08:56.506Z,16.13
2022-09-04T05:13:10.477Z,16.18
2022-09-04T05:17:37.476Z,16.26
2022-09-04T05:22:10.391Z,16.19
2022-09-04T05:26:37.129Z,16.22
2022-09-04T05:30:51.882Z,16.28
2022-09-04T05:35:04.250Z,16.39
2022-09-04T05:39:41.919Z,16.49
2022-09-04T05:43:57.821Z,16.54
2022-09-04T05:48:09.489Z,16.61
2022-09-04T05:52:29.954Z,16.71
2022-09-04T05:56:51.690Z,16.82
2022-09-04T06:01:23.612Z,16.95
2022-09-04T06:05:47.252Z,17.10
2022-09-04T06:10:08.605Z,17.20
2022-09-04T06:14:48.158Z,17.37
2022-09-04T06:19:08.223Z,17.60
2022-09-04T06:23:17.724Z,17.88
2022-09-04T06:27:39.334Z,18.07
2022-09-04T06:32:04.370Z,18.25
2022-09-04T06:36:35.941Z,18.51
2022-09-04T06:40:55.169Z,18.85
2022-09-04T06:45:09.810Z,19.27
2022-09-04T06:49:24.122Z,19.46
2022-09-04T06:53:38.813Z,19.77
2022-09-04T06:58:13.827Z,20.42
2022-09-04T07:02:24.298Z,20.80
2022-09-04T07:06:58.822Z,20.81
2022-09-04T07:11:38.637Z,20.53
2022-09-04T07:16:00.717Z,20.42
2022-09-04T07:20:10.433Z,20.42
2022-09-04T07:24:27.808Z,20.58
2022-09-04T07:29:05.424Z,20.72
2022-09-04T07:33:19.274Z,21.20
2022-09-04T07:37:31.190Z,21.67
2022-09-04T07:41:52.920Z,21.91
2022-09-04T07:46:05.278Z,21.96
2022-09-04T07:50:35.656Z,22.39
2022-09-04T07:54:58.549Z,22.65
2022-09-04T07:59:38.889Z,22.56
2022-09-04T08:03:58.081Z,22.57
2022-09-04T08:08:04.631Z,22.84
2022-09-04T08:12:30.422Z,22.86
2022-09-04T08:16:53.275Z,22.76
2022-09-04T08:21:15.928Z,22.57
2022-09-04T08:25:29.952Z,22.34
2022-09-04T08:29:38.092Z,22.13
2022-09-04T08:34:03.228Z,21.95
2022-09-04T08:38:34.857Z,21.80
2022-09-04T08:43:07.364Z,21.72
2022-09-04T08:47:41.203Z,21.74
2022-09-04T08:52:07.813Z,21.73
2022-09-04T08:56:45.079Z,21.74
2022-09-04T09:01:25.272Z,21.79
2022-09-04T09:05:46.134Z,21.77
2022-09-04T09:10:25.961Z,21.87
2022-09-04T09:14:53.087Z,22.01
2022-09-04T09:19:37.488Z,22.18
2022-09-04T09:24:01.538Z,22.38
2022-09-04T09:28:23.341Z,22.46
2022-09-04T09:33:03.083Z,22.54
2022-09-04T09:37:18.341Z,22.64
2022-09-04T09:41:41.913Z,22.71
2022-09-04T09:46:34.743Z,22.88
2022-09-04T09:50:54.753Z,23.01
2022-09-04T09:55:09.381Z,23.13
2022-09-04T09:59:48.889Z,23.22
2022-09-04T10:04:15.388Z,23.37
2022-09-04T10:08:36.860Z,23.48
2022-09-04T10:12:50.854Z,23.65
2022-09-04T10:17:18.078Z,23.78
2022-09-04T10:21:35.294Z,23.86
2022-09-04T10:25:58.414Z,24.03
2022-09-04T10:30:03.441Z,24.16
2022-09-04T10:34:44.869Z,24.33
2022-09-04T10:39:25.838Z,24.45
2022-09-04T10:43:37.433Z,24.47
2022-09-04T10:47:58.769Z,24.60
2022-09-04T10:52:43.783Z,24.78
2022-09-04T10:56:48.788Z,24.86
2022-09-04T11:01:18.935Z,25.06
2022-09-04T11:05:25.649Z,25.28
2022-09-04T11:10:09.056Z,25.43
2022-09-04T11:14:31.378Z,25.46
2022-09-04T11:18:57.373Z,25.29
2022-09-04T11:23:24.075Z,25.23
2022-09-04T11:27:58.570Z,25.37
2022-09-04T11:32:31.916Z,25.63
2022-09-04T11:37:06.635Z,25.56
2022-09-04T11:41:31.345Z,25.53
2022-09-04T11:46:03.829Z,25.48
2022-09-04T11:50:12.002Z,25.44
2022-09-04T11:54:38.961Z,25.44
2022-09-04T11:58:50.068Z,25.41
2022-09-04T12:02:55.165Z,25.43
2022-09-04T12:07:39.332Z,25.46
2022-09-04T12:12:10.092Z,25.43
2022-09-04T12:16:27.071Z,25.49
2022-09-04T12:20:47.915Z,25.62
2022-09-04T12:25:08.762Z,25.70
2022-09-04T12:29:55.342Z,25.82
2022-09-04T12:34:38.474Z,25.97
2022-09-04T12:39:16.070Z,26.12
2022-09-04T12:43:29.805Z,26.16
2022-09-04T12:47:37.322Z,26.13
2022-09-04T12:51:51.474Z,26.03
2022-09-04T12:56:17.011Z,25.92
2022-09-04T13:00:19.064Z,25.91
2022-09-04T13:04:27.549Z,25.85
2022-09-04T13:08:54.115Z,25.76
2022-09-04T13:12:59.116Z,25.71
2022-09-04T13:17:12.870Z,25.70
2022-09-04T13:21:25.249Z,25.62
2022-09-04T13:25:44.946Z,25.55
2022-09-04T13:30:07.966Z,25.58
2022-09-04T13:34:26.755Z,25.63
2022-09-04T13:38:39.957Z,25.75
2022-09-04T13:43:07.040Z,25.90
2022-09-04T13:47:20.957Z,25.96
2022-09-04T13:51:32.900Z,26.09
2022-09-04T13:55:41.135Z,26.20
2022-09-04T13:59:48.968Z,26.28
2022-09-04T14:04:01.575Z,26.29
2022-09-04T14:08:08.711Z,26.15
2022-09-04T14:12:32.130Z,26.02
2022-09-04T14:16:36.930Z,25.99
2022-09-04T14:20:43.492Z,25.89
2022-09-04T14:25:06.706Z,25.66
2022-09-04T14:29:21.165Z,25.56
2022-09-04T14:38:15.178Z,25.47
2022-09-04T14:42:31.010Z,25.39
2022-09-04T14:46:48.549Z,25.21
2022-09-04T14:50:57.588Z,25.14
2022-09-04T14:55:01.744Z,25.09
2022-09-04T14:59:12.995Z,24.95
2022-09-04T15:03:20.630Z,24.85
2022-09-04T15:07:32.735Z,24.76
2022-09-04T15:11:36.094Z,24.66
2022-09-04T15:15:47.763Z,24.62
2022-09-04T15:20:05.795Z,24.57
2022-09-04T15:24:17.688Z,24.52
2022-09-04T15:28:48.390Z,24.49
2022-09-04T15:33:11.721Z,24.39
2022-09-04T15:37:18.822Z,24.33
2022-09-04T15:41:37.602Z,24.32
2022-09-04T15:45:51.927Z,24.37
2022-09-04T15:49:58.557Z,24.40
2022-09-04T15:54:10.031Z,24.43
2022-09-04T15:58:30.158Z,24.51
2022-09-04T16:02:43.613Z,24.58
2022-09-04T16:06:57.607Z,24.64
2022-09-04T16:11:38.307Z,24.66
2022-09-04T16:15:46.181Z,24.64
2022-09-04T16:19:53.426Z,24.67
2022-09-04T16:23:59.688Z,24.71
2022-09-04T16:28:19.068Z,24.75
2022-09-04T16:32:29.991Z,24.79
2022-09-04T16:36:40.719Z,24.85
2022-09-04T16:40:54.277Z,24.84
2022-09-04T16:45:22.163Z,24.76
2022-09-04T16:49:51.623Z,24.71
2022-09-04T16:54:05.170Z,24.68
2022-09-04T16:58:29.946Z,24.63
2022-09-04T17:02:50.694Z,24.62
2022-09-04T17:07:12.006Z,24.54
2022-09-04T17:11:30.183Z,24.45
2022-09-04T17:15:45.878Z,24.36
2022-09-04T17:20:02.194Z,24.26
2022-09-04T17:29:08.798Z,24.16
2022-09-04T17:40:35.593Z,23.90
2022-09-04T17:40:36.995Z,23.76
2022-09-04T17:43:36.381Z,23.60
2022-09-04T17:47:43.688Z,23.47
2022-09-04T17:52:24.193Z,23.34
2022-09-04T17:56:40.938Z,23.18
2022-09-04T18:01:15.286Z,22.98
2022-09-04T18:05:23.250Z,22.74
2022-09-04T18:09:35.967Z,22.49
2022-09-04T18:14:03.140Z,22.26
2022-09-04T18:18:17.073Z,22.10
2022-09-04T18:22:31.900Z,21.96
2022-09-04T18:26:59.690Z,21.86
2022-09-04T18:37:10.472Z,21.70
2022-09-04T18:37:20.410Z,21.56
2022-09-04T18:44:00.844Z,21.39
2022-09-04T18:50:45.117Z,21.05
2022-09-04T18:50:53.076Z,21.24
2022-09-04T18:54:41.809Z,20.86
2022-09-04T18:58:43.768Z,20.74
2022-09-04T19:02:53.744Z,20.65
2022-09-04T19:07:32.646Z,20.53
2022-09-04T19:11:41.162Z,20.35
2022-09-04T19:15:52.453Z,20.17
2022-09-04T19:20:03.609Z,20.02
2022-09-04T19:24:34.469Z,19.94
2022-09-04T19:28:52.675Z,19.85
2022-09-04T19:33:17.688Z,19.69
2022-09-04T19:39:04.818Z,19.62
2022-09-04T19:46:01.173Z,19.52
2022-09-04T19:46:51.042Z,19.37
2022-09-04T19:53:31.421Z,19.21
2022-09-04T19:55:45.669Z,18.98
2022-09-04T20:00:42.129Z,18.96
2022-09-04T20:04:38.615Z,18.84
2022-09-04T20:08:53.292Z,18.57
2022-09-04T20:13:10.742Z,18.47
2022-09-04T20:18:01.537Z,18.46
2022-09-04T20:22:24.747Z,18.13
2022-09-04T20:26:32.031Z,17.77
2022-09-04T20:30:36.811Z,17.59
2022-09-04T20:35:13.010Z,17.53
2022-09-04T20:39:24.451Z,17.57
2022-09-04T20:43:56.122Z,17.52
2022-09-04T20:52:50.064Z,17.55
2022-09-04T20:53:07.180Z,17.57
2022-09-04T21:02:02.524Z,17.38
2022-09-04T21:03:08.254Z,17.09
2022-09-04T21:06:57.098Z,17.02
2022-09-04T21:11:38.926Z,16.98
2022-09-04T21:15:47.048Z,16.96
2022-09-04T21:20:23.690Z,16.75
2022-09-04T21:25:00.091Z,16.60
2022-09-04T21:29:28.133Z,16.55
2022-09-04T21:33:41.215Z,16.50
2022-09-04T21:38:15.232Z,16.36
2022-09-04T21:42:51.410Z,16.41
2022-09-04T21:47:11.677Z,16.57
2022-09-04T21:51:55.399Z,16.58
2022-09-04T22:01:19.540Z,16.53
2022-09-04T22:02:41.129Z,16.60
2022-09-04T22:06:03.689Z,16.55
2022-09-04T22:13:32.672Z,16.48
2022-09-04T22:14:59.024Z,16.28
2022-09-04T22:19:17.068Z,16.11
2022-09-04T22:23:49.841Z,16.10
2022-09-04T22:28:21.184Z,16.06
2022-09-04T22:32:29.256Z,16.12
2022-09-04T22:36:59.031Z,16.20
2022-09-04T22:41:17.587Z,16.27
2022-09-04T22:45:50.836Z,16.22
2022-09-04T22:50:17.813Z,16.19
2022-09-04T22:54:41.670Z,16.20
2022-09-04T22:59:25.589Z,16.17
2022-09-04T23:04:00.306Z,16.11
2022-09-04T23:13:41.992Z,15.87
2022-09-04T23:13:47.523Z,15.52
2022-09-04T23:17:58.212Z,15.40
2022-09-04T23:26:53.816Z,15.37
2022-09-04T23:27:29.464Z,15.18
2022-09-04T23:32:10.047Z,15.16
2022-09-04T23:36:35.439Z,15.24
2022-09-04T23:40:42.655Z,15.09
2022-09-04T23:45:02.927Z,15.14
2022-09-04T23:49:17.640Z,15.15
2022-09-04T23:53:41.495Z,15.01
2022-09-04T23:57:52.545Z,14.95
